createdAt,value
2019-05-01T00:01:51.918Z,5.53
2019-05-01T00:04:28.619Z,6.73
2019-05-01T00:06:57.940Z,6.63
2019-05-01T00:09:23.309Z,6.73
2019-05-01T00:11:48.826Z,7.43
2019-05-01T00:14:14.595Z,8.40
2019-05-01T00:16:40.626Z,8.57
2019-05-01T00:19:05.981Z,9.23
2019-05-01T00:21:31.359Z,10.10
2019-05-01T00:23:56.735Z,10.50
2019-05-01T00:26:23.118Z,10.83
2019-05-01T00:28:48.670Z,11.40
2019-05-01T00:31:15.806Z,11.90
2019-05-01T00:33:41.262Z,11.40
2019-05-01T00:36:06.714Z,12.43
2019-05-01T00:38:33.250Z,11.93
2019-05-01T00:40:58.634Z,12.40
2019-05-01T00:43:23.996Z,12.63
2019-05-01T00:45:49.365Z,12.33
2019-05-01T00:48:15.114Z,12.40
2019-05-01T00:50:40.556Z,12.43
2019-05-01T00:53:05.917Z,12.83
2019-05-01T00:55:49.299Z,13.27
2019-05-01T00:58:33.250Z,13.10
2019-05-01T01:01:09.812Z,12.80
2019-05-01T01:03:35.174Z,13.90
2019-05-01T01:06:00.883Z,14.27
2019-05-01T01:08:26.306Z,14.00
2019-05-01T01:10:51.770Z,14.60
2019-05-01T01:13:17.475Z,15.10
2019-05-01T01:15:42.890Z,15.53
2019-05-01T01:18:08.567Z,14.93
2019-05-01T01:20:33.943Z,16.03
2019-05-01T01:22:59.356Z,15.30
2019-05-01T01:25:25.159Z,16.10
2019-05-01T01:27:50.529Z,16.07
2019-05-01T01:30:16.127Z,16.67
2019-05-01T01:32:41.523Z,16.77
2019-05-01T01:35:07.136Z,17.20
2019-05-01T01:37:32.517Z,17.27
2019-05-01T01:39:58.195Z,17.97
2019-05-01T01:42:34.474Z,18.23
2019-05-01T01:45:31.219Z,19.07
2019-05-01T01:48:15.420Z,17.57
2019-05-01T01:50:42.452Z,18.83
2019-05-01T01:53:08.222Z,19.07
2019-05-01T01:55:33.843Z,18.87
2019-05-01T01:57:59.334Z,19.67
2019-05-01T02:00:28.306Z,19.17
2019-05-01T02:02:57.770Z,18.77
2019-05-01T02:05:27.204Z,20.57
2019-05-01T02:07:52.773Z,19.63
2019-05-01T02:10:18.750Z,20.77
2019-05-01T02:12:45.820Z,20.93
2019-05-01T02:15:11.392Z,20.90
2019-05-01T02:17:36.842Z,21.87
2019-05-01T02:20:02.290Z,21.67
2019-05-01T02:22:27.681Z,21.87
2019-05-01T02:24:53.399Z,21.87
2019-05-01T02:27:27.830Z,23.23
2019-05-01T02:29:57.099Z,23.53
2019-05-01T02:32:24.778Z,22.20
2019-05-01T02:34:51.883Z,23.37
2019-05-01T02:37:19.025Z,23.27
2019-05-01T02:39:46.609Z,23.83
2019-05-01T02:42:14.295Z,25.37
2019-05-01T02:44:44.778Z,24.97
2019-05-01T02:47:13.144Z,25.90
2019-05-01T02:49:53.173Z,25.77
2019-05-01T02:52:19.498Z,27.37
2019-05-01T02:54:47.748Z,28.00
2019-05-01T02:57:15.690Z,27.67
2019-05-01T02:59:44.567Z,29.27
2019-05-01T03:02:10.933Z,29.00
2019-05-01T03:04:36.992Z,28.43
2019-05-01T03:07:04.781Z,28.97
2019-05-01T03:09:30.559Z,28.50
2019-05-01T03:11:57.718Z,29.87
2019-05-01T03:14:26.062Z,29.27
2019-05-01T03:16:53.827Z,29.57
2019-05-01T03:19:39.021Z,30.30
2019-05-01T03:22:11.664Z,31.27
2019-05-01T03:24:39.526Z,30.77
2019-05-01T03:27:05.824Z,32.07
2019-05-01T03:29:31.695Z,32.10
2019-05-01T03:32:15.451Z,32.67
2019-05-01T03:34:28.131Z,32.13
2019-05-01T03:36:54.560Z,33.63
2019-05-01T03:39:20.628Z,33.73
2019-05-01T03:41:47.293Z,33.80
2019-05-01T03:44:12.932Z,34.47
2019-05-01T03:46:38.642Z,33.47
2019-05-01T03:49:06.558Z,33.00
2019-05-01T03:51:31.997Z,34.47
2019-05-01T03:53:58.071Z,34.83
2019-05-01T03:56:23.783Z,34.33
2019-05-01T03:58:49.403Z,35.37
2019-05-01T04:01:44.224Z,35.37
2019-05-01T04:04:28.629Z,34.27
2019-05-01T04:06:54.920Z,35.23
2019-05-01T04:09:21.470Z,34.30
2019-05-01T04:11:46.978Z,33.77
2019-05-01T04:14:12.806Z,34.67
2019-05-01T04:16:39.033Z,34.77
2019-05-01T04:19:05.559Z,33.70
2019-05-01T04:21:36.635Z,35.03
2019-05-01T04:24:02.017Z,34.53
2019-05-01T04:26:27.796Z,34.47
2019-05-01T04:29:05.861Z,35.63
2019-05-01T04:31:59.547Z,34.03
2019-05-01T04:34:46.697Z,34.20
2019-05-01T04:37:13.491Z,35.30
2019-05-01T04:39:39.004Z,35.20
2019-05-01T04:42:04.598Z,34.30
2019-05-01T04:44:29.970Z,35.60
2019-05-01T04:46:55.668Z,35.43
2019-05-01T04:49:21.042Z,36.43
2019-05-01T04:51:46.531Z,35.23
2019-05-01T04:54:12.371Z,35.37
2019-05-01T04:56:37.766Z,34.03
2019-05-01T04:59:03.696Z,36.33
2019-05-01T05:01:35.285Z,35.90
2019-05-01T05:04:00.770Z,36.50
2019-05-01T05:06:26.187Z,35.90
2019-05-01T05:08:51.649Z,34.93
2019-05-01T05:11:22.634Z,35.40
2019-05-01T05:14:10.339Z,36.77
2019-05-01T05:16:52.323Z,36.53
2019-05-01T05:19:17.954Z,36.77
2019-05-01T05:21:43.424Z,36.37
2019-05-01T05:24:08.996Z,37.17
2019-05-01T05:26:35.219Z,36.03
2019-05-01T05:29:01.278Z,36.00
2019-05-01T05:31:28.398Z,36.77
2019-05-01T05:33:56.570Z,34.43
2019-05-01T05:36:25.021Z,36.87
2019-05-01T05:38:59.030Z,37.73
2019-05-01T05:41:25.258Z,36.07
2019-05-01T05:43:50.622Z,36.93
2019-05-01T05:46:16.611Z,36.53
2019-05-01T05:48:42.646Z,37.87
2019-05-01T05:51:48.391Z,38.63
2019-05-01T05:54:53.123Z,39.73
2019-05-01T05:57:26.202Z,38.53
2019-05-01T05:59:57.573Z,38.10
2019-05-01T06:02:36.106Z,37.97
2019-05-01T06:05:12.285Z,40.50
2019-05-01T06:07:44.813Z,40.67
2019-05-01T06:10:29.760Z,41.10
2019-05-01T06:13:17.984Z,41.73
2019-05-01T06:15:53.662Z,39.97
2019-05-01T06:18:27.273Z,41.23
2019-05-01T06:21:04.858Z,42.00
2019-05-01T06:23:47.378Z,38.43
2019-05-01T06:26:31.890Z,41.73
2019-05-01T06:29:00.756Z,41.43
2019-05-01T06:31:25.313Z,41.60
2019-05-01T06:33:52.978Z,43.53
2019-05-01T06:36:19.909Z,42.87
2019-05-01T06:38:45.666Z,40.43
2019-05-01T06:41:11.914Z,42.73
2019-05-01T06:44:04.064Z,44.27
2019-05-01T06:46:58.392Z,45.37
2019-05-01T06:49:39.516Z,43.83
2019-05-01T06:52:06.522Z,43.33
2019-05-01T06:54:34.697Z,45.07
2019-05-01T06:57:02.426Z,45.93
2019-05-01T06:59:31.407Z,45.00
2019-05-01T07:02:00.126Z,46.40
2019-05-01T07:04:26.299Z,47.33
2019-05-01T07:06:52.454Z,46.67
2019-05-01T07:09:27.907Z,45.97
2019-05-01T07:11:47.703Z,47.87
2019-05-01T07:14:16.578Z,48.13
2019-05-01T07:16:39.368Z,48.10
2019-05-01T07:19:07.029Z,48.27
2019-05-01T07:21:32.866Z,48.33
2019-05-01T07:23:58.474Z,46.80
2019-05-01T07:26:23.842Z,45.07
2019-05-01T07:28:50.994Z,45.70
2019-05-01T07:31:16.673Z,46.47
2019-05-01T07:33:46.991Z,45.07
2019-05-01T07:36:15.161Z,45.27
2019-05-01T07:38:40.478Z,43.73
2019-05-01T07:41:06.434Z,43.60
2019-05-01T07:43:44.146Z,43.30
2019-05-01T07:46:28.854Z,43.53
2019-05-01T07:48:54.255Z,44.13
2019-05-01T07:51:20.898Z,42.70
2019-05-01T07:53:47.150Z,42.60
2019-05-01T07:56:13.633Z,39.20
2019-05-01T07:58:39.517Z,41.53
2019-05-01T08:01:17.672Z,42.80
2019-05-01T08:03:42.751Z,41.00
2019-05-01T08:06:06.941Z,39.33
2019-05-01T08:08:32.891Z,39.77
2019-05-01T08:10:59.958Z,39.80
2019-05-01T08:13:26.354Z,38.10
2019-05-01T08:15:51.872Z,38.87
2019-05-01T08:18:27.998Z,37.53
2019-05-01T08:20:57.489Z,36.83
2019-05-01T08:23:22.860Z,35.67
2019-05-01T08:25:48.225Z,36.83
2019-05-01T08:28:27.687Z,35.63
2019-05-01T08:31:13.885Z,34.63
2019-05-01T08:33:55.081Z,34.73
2019-05-01T08:36:20.937Z,34.10
2019-05-01T08:38:46.303Z,34.03
2019-05-01T08:41:11.913Z,34.43
2019-05-01T08:43:38.184Z,33.17
2019-05-01T08:46:21.750Z,32.77
2019-05-01T08:49:06.783Z,32.27
2019-05-01T08:51:34.820Z,30.63
2019-05-01T08:54:00.173Z,30.87
2019-05-01T08:56:25.537Z,30.00
2019-05-01T08:58:51.082Z,30.50
2019-05-01T09:01:16.511Z,30.50
2019-05-01T09:03:41.831Z,28.13
2019-05-01T09:06:07.222Z,29.47
2019-05-01T09:08:33.350Z,28.37
2019-05-01T09:11:00.780Z,29.67
2019-05-01T09:13:27.242Z,28.30
2019-05-01T09:15:53.702Z,29.10
2019-05-01T09:18:19.071Z,28.53
2019-05-01T09:20:46.041Z,27.07
2019-05-01T09:23:14.397Z,29.27
2019-05-01T09:25:47.871Z,28.23
2019-05-01T09:28:24.942Z,30.83
2019-05-01T09:31:01.572Z,31.83
2019-05-01T09:33:26.174Z,33.27
2019-05-01T09:35:50.912Z,32.37
2019-05-01T09:38:17.253Z,31.80
2019-05-01T09:40:42.642Z,33.77
2019-05-01T09:43:08.221Z,32.87
2019-05-01T09:45:33.677Z,31.37
2019-05-01T09:47:59.258Z,32.93
2019-05-01T09:50:25.769Z,30.17
2019-05-01T09:53:14.937Z,30.77
2019-05-01T09:56:07.674Z,29.40
2019-05-01T09:58:32.882Z,31.40
2019-05-01T10:01:00.422Z,30.17
2019-05-01T10:03:25.785Z,29.60
2019-05-01T10:05:51.158Z,30.73
2019-05-01T10:08:16.649Z,29.30
2019-05-01T10:10:42.022Z,30.43
2019-05-01T10:13:07.402Z,31.57
2019-05-01T10:15:32.827Z,30.73
2019-05-01T10:17:58.230Z,32.07
2019-05-01T10:20:23.599Z,32.37
2019-05-01T10:22:48.998Z,32.47
2019-05-01T10:25:14.359Z,30.67
2019-05-01T10:27:42.328Z,30.83
2019-05-01T10:30:36.376Z,32.00
2019-05-01T10:33:06.803Z,32.10
2019-05-01T10:36:06.474Z,30.97
2019-05-01T10:38:31.831Z,30.33
2019-05-01T10:40:57.606Z,30.27
2019-05-01T10:43:22.966Z,29.70
2019-05-01T10:45:48.342Z,30.37
2019-05-01T10:48:13.762Z,30.10
2019-05-01T10:50:39.158Z,29.37
2019-05-01T10:53:04.617Z,27.03
2019-05-01T10:55:30.024Z,28.30
2019-05-01T10:57:55.398Z,27.93
2019-05-01T11:00:21.061Z,27.13
2019-05-01T11:02:46.520Z,25.87
2019-05-01T11:05:12.082Z,23.70
2019-05-01T11:07:37.491Z,21.95
2019-05-01T11:10:02.860Z,22.05
2019-05-01T11:12:28.264Z,21.52
2019-05-01T11:14:53.630Z,20.00
2019-05-01T11:17:19.387Z,20.57
2019-05-01T11:19:44.778Z,19.42
2019-05-01T11:22:10.241Z,19.45
2019-05-01T11:24:35.755Z,18.40
2019-05-01T11:27:01.128Z,19.43
2019-05-01T11:29:26.914Z,19.73
2019-05-01T11:31:59.375Z,18.00
2019-05-01T11:34:55.803Z,18.12
2019-05-01T11:37:31.484Z,16.17
2019-05-01T11:40:04.090Z,16.67
2019-05-01T11:42:29.490Z,16.95
2019-05-01T11:44:54.851Z,17.23
2019-05-01T11:47:20.255Z,15.33
2019-05-01T11:49:45.633Z,16.27
2019-05-01T11:52:11.008Z,16.05
2019-05-01T11:54:36.403Z,16.00
2019-05-01T11:57:01.784Z,15.55
2019-05-01T11:59:27.179Z,15.05
2019-05-01T12:01:52.575Z,14.38
2019-05-01T12:04:18.290Z,13.58
2019-05-01T12:06:44.168Z,13.35
2019-05-01T12:09:09.529Z,13.88
2019-05-01T12:11:38.104Z,13.53
2019-05-01T12:14:03.592Z,14.23
2019-05-01T12:16:46.867Z,14.35
2019-05-01T12:19:13.427Z,13.22
2019-05-01T12:21:38.789Z,12.25
2019-05-01T12:24:05.762Z,12.33
2019-05-01T12:26:32.265Z,11.80
2019-05-01T12:28:57.638Z,11.43
2019-05-01T12:31:23.049Z,11.95
2019-05-01T12:33:48.414Z,13.45
2019-05-01T12:36:13.790Z,11.68
2019-05-01T12:38:39.195Z,12.53
2019-05-01T12:41:38.864Z,12.93
2019-05-01T12:44:04.306Z,12.20
2019-05-01T12:46:42.810Z,11.78
2019-05-01T12:49:08.313Z,11.12
2019-05-01T12:51:35.349Z,10.70
2019-05-01T12:54:09.495Z,10.15
2019-05-01T12:56:38.349Z,10.10
2019-05-01T12:59:03.729Z,10.03
2019-05-01T13:01:29.235Z,10.50
2019-05-01T13:03:54.599Z,10.20
2019-05-01T13:06:20.347Z,9.83
2019-05-01T13:08:45.706Z,8.70
2019-05-01T13:11:12.162Z,9.50
2019-05-01T13:13:37.562Z,9.55
2019-05-01T13:16:02.939Z,8.90
2019-05-01T13:18:28.330Z,10.30
2019-05-01T13:20:53.685Z,9.45
2019-05-01T13:23:20.243Z,9.13
2019-05-01T13:25:49.832Z,8.05
2019-05-01T13:28:34.314Z,7.78
2019-05-01T13:31:21.452Z,8.00
2019-05-01T13:33:47.791Z,8.50
2019-05-01T13:36:13.563Z,8.60
2019-05-01T13:38:38.918Z,8.00
2019-05-01T13:41:04.393Z,6.95
2019-05-01T13:43:29.779Z,6.83
2019-05-01T13:45:55.144Z,6.97
2019-05-01T13:48:20.538Z,6.85
2019-05-01T13:50:46.970Z,6.08
2019-05-01T13:53:12.378Z,5.37
2019-05-01T13:55:37.726Z,4.92
2019-05-01T13:58:03.109Z,5.28
2019-05-01T14:00:28.702Z,5.45
2019-05-01T14:02:54.087Z,5.90
2019-05-01T14:05:20.142Z,5.17
2019-05-01T14:07:45.732Z,5.25
2019-05-01T14:10:11.189Z,5.37
2019-05-01T14:12:36.543Z,4.80
2019-05-01T14:15:01.946Z,5.03
2019-05-01T14:17:27.374Z,4.47
2019-05-01T14:20:02.450Z,4.10
2019-05-01T14:22:36.666Z,4.83
2019-05-01T14:25:03.470Z,5.35
2019-05-01T14:27:28.826Z,5.53
2019-05-01T14:29:54.185Z,5.25
2019-05-01T14:32:19.603Z,5.08
2019-05-01T14:34:44.921Z,4.90
2019-05-01T14:37:10.342Z,5.08
2019-05-01T14:39:35.693Z,4.65
2019-05-01T14:42:01.107Z,4.70
2019-05-01T14:44:36.317Z,5.75
2019-05-01T14:46:53.466Z,5.08
2019-05-01T14:49:19.192Z,4.97
2019-05-01T14:51:44.558Z,5.08
2019-05-01T14:54:10.071Z,5.20
2019-05-01T14:56:35.426Z,4.60
2019-05-01T14:59:01.174Z,4.85
2019-05-01T15:01:26.562Z,4.90
2019-05-01T15:03:51.981Z,4.92
2019-05-01T15:06:17.367Z,4.17
2019-05-01T15:08:42.720Z,3.98
2019-05-01T15:11:08.077Z,4.55
2019-05-01T15:13:47.890Z,4.53
2019-05-01T15:16:21.620Z,4.47
2019-05-01T15:19:14.986Z,4.87
2019-05-01T15:21:40.338Z,4.58
2019-05-01T15:24:05.847Z,4.22
2019-05-01T15:26:31.256Z,4.55
2019-05-01T15:28:56.610Z,4.42
2019-05-01T15:31:22.083Z,4.35
2019-05-01T15:33:47.422Z,4.40
2019-05-01T15:36:12.782Z,3.80
2019-05-01T15:38:38.176Z,4.00
2019-05-01T15:41:22.477Z,4.20
2019-05-01T15:44:06.789Z,3.83
2019-05-01T15:46:32.634Z,4.12
2019-05-01T15:48:58.054Z,3.80
2019-05-01T15:51:23.411Z,3.87
2019-05-01T15:53:49.115Z,3.63
2019-05-01T15:56:14.501Z,3.70
2019-05-01T15:58:40.246Z,4.23
2019-05-01T16:01:05.846Z,4.13
2019-05-01T16:03:31.210Z,4.33
2019-05-01T16:05:56.594Z,4.17
2019-05-01T16:08:21.982Z,4.00
2019-05-01T16:11:00.446Z,3.77
2019-05-01T16:13:25.843Z,3.67
2019-05-01T16:15:51.209Z,3.20
2019-05-01T16:18:16.788Z,2.97
2019-05-01T16:20:42.211Z,2.30
2019-05-01T16:23:07.863Z,2.80
2019-05-01T16:25:33.250Z,2.60
2019-05-01T16:27:58.606Z,2.47
2019-05-01T16:30:25.691Z,2.40
2019-05-01T16:32:51.117Z,2.40
2019-05-01T16:35:16.480Z,2.30
2019-05-01T16:37:41.885Z,2.33
2019-05-01T16:40:29.641Z,2.60
2019-05-01T16:42:55.031Z,2.60
2019-05-01T16:45:20.451Z,2.23
2019-05-01T16:47:45.822Z,2.70
2019-05-01T16:50:11.346Z,2.33
2019-05-01T16:52:39.282Z,2.50
2019-05-01T16:55:05.721Z,2.37
2019-05-01T16:57:31.143Z,2.87
2019-05-01T16:59:56.543Z,3.10
2019-05-01T17:02:39.517Z,2.87
2019-05-01T17:05:30.182Z,2.90
2019-05-01T17:08:02.884Z,2.70
2019-05-01T17:10:32.716Z,2.90
2019-05-01T17:12:58.482Z,2.70
2019-05-01T17:15:35.390Z,3.43
2019-05-01T17:18:00.743Z,3.20
2019-05-01T17:20:26.408Z,3.63
2019-05-01T17:22:51.946Z,2.80
2019-05-01T17:25:17.330Z,2.90
2019-05-01T17:27:42.921Z,3.40
2019-05-01T17:30:12.694Z,3.60
2019-05-01T17:32:39.803Z,3.73
2019-05-01T17:35:08.014Z,3.20
2019-05-01T17:37:35.062Z,3.90
2019-05-01T17:40:00.426Z,4.10
2019-05-01T17:42:25.779Z,4.13
2019-05-01T17:44:51.174Z,4.60
2019-05-01T17:47:17.998Z,4.43
2019-05-01T17:49:44.857Z,4.97
2019-05-01T17:52:10.735Z,4.83
2019-05-01T17:54:36.089Z,4.70
2019-05-01T17:57:01.494Z,5.07
2019-05-01T17:59:27.236Z,5.00
2019-05-01T18:02:05.197Z,4.90
2019-05-01T18:05:07.697Z,5.53
2019-05-01T18:07:34.957Z,5.37
2019-05-01T18:10:00.230Z,4.90
2019-05-01T18:12:28.590Z,5.27
2019-05-01T18:14:52.602Z,5.80
2019-05-01T18:17:18.006Z,6.37
2019-05-01T18:19:43.386Z,5.83
2019-05-01T18:22:26.772Z,5.43
2019-05-01T18:25:09.867Z,5.50
2019-05-01T18:28:01.747Z,5.73
2019-05-01T18:30:32.632Z,5.93
2019-05-01T18:32:58.035Z,5.77
2019-05-01T18:35:23.533Z,5.70
2019-05-01T18:37:57.313Z,6.37
2019-05-01T18:40:34.151Z,6.53
2019-05-01T18:42:59.571Z,6.20
2019-05-01T18:45:54.523Z,6.07
2019-05-01T18:48:20.923Z,6.10
2019-05-01T18:50:49.480Z,5.73
2019-05-01T18:53:13.818Z,6.17
2019-05-01T18:55:39.217Z,5.80
2019-05-01T18:58:04.681Z,6.90
2019-05-01T19:00:30.106Z,5.70
2019-05-01T19:02:59.550Z,6.03
2019-05-01T19:05:22.484Z,5.67
2019-05-01T19:07:47.871Z,5.97
2019-05-01T19:10:13.391Z,6.03
2019-05-01T19:12:38.778Z,6.07
2019-05-01T19:15:05.396Z,6.13
2019-05-01T19:17:31.399Z,5.90
2019-05-01T19:19:56.766Z,5.87
2019-05-01T19:22:22.196Z,5.73
2019-05-01T19:24:48.733Z,5.83
2019-05-01T19:27:19.014Z,6.00
2019-05-01T19:29:41.959Z,5.97
2019-05-01T19:32:08.257Z,5.53
2019-05-01T19:34:34.693Z,5.83
2019-05-01T19:37:00.094Z,5.87
2019-05-01T19:39:25.438Z,5.63
2019-05-01T19:41:51.096Z,5.77
2019-05-01T19:44:18.794Z,5.80
2019-05-01T19:46:45.389Z,5.70
2019-05-01T19:49:10.763Z,5.70
2019-05-01T19:51:36.202Z,5.80
2019-05-01T19:54:01.613Z,5.50
2019-05-01T19:56:27.051Z,5.43
2019-05-01T19:58:52.794Z,5.87
2019-05-01T20:01:18.282Z,6.07
2019-05-01T20:03:43.670Z,6.50
2019-05-01T20:06:09.083Z,7.53
2019-05-01T20:08:34.780Z,7.37
2019-05-01T20:11:01.411Z,6.67
2019-05-01T20:13:26.966Z,7.00
2019-05-01T20:15:52.347Z,6.70
2019-05-01T20:18:17.700Z,6.47
2019-05-01T20:20:43.104Z,6.03
2019-05-01T20:23:08.533Z,6.40
2019-05-01T20:25:33.943Z,6.50
2019-05-01T20:27:59.306Z,5.67
2019-05-01T20:30:24.716Z,5.77
2019-05-01T20:32:50.121Z,7.03
2019-05-01T20:35:15.464Z,7.10
2019-05-01T20:37:40.867Z,6.60
2019-05-01T20:40:11.310Z,6.17
2019-05-01T20:42:35.038Z,6.50
2019-05-01T20:45:05.659Z,6.80
2019-05-01T20:47:34.965Z,6.80
2019-05-01T20:49:54.980Z,6.70
2019-05-01T20:52:20.342Z,7.70
2019-05-01T20:54:45.812Z,7.20
2019-05-01T20:57:20.885Z,6.73
2019-05-01T20:59:44.370Z,7.40
2019-05-01T21:02:09.734Z,8.10
2019-05-01T21:05:07.546Z,7.57
2019-05-01T21:07:37.058Z,7.17
2019-05-01T21:10:03.035Z,7.40
2019-05-01T21:12:30.014Z,7.60
2019-05-01T21:14:55.445Z,7.67
2019-05-01T21:17:20.839Z,7.53
2019-05-01T21:19:46.197Z,7.90
2019-05-01T21:22:11.578Z,7.83
2019-05-01T21:24:36.941Z,7.87
2019-05-01T21:27:03.464Z,8.27
2019-05-01T21:29:28.977Z,8.63
2019-05-01T21:31:54.529Z,8.17
2019-05-01T21:34:19.882Z,9.60
2019-05-01T21:36:47.772Z,9.37
2019-05-01T21:39:12.635Z,9.33
2019-05-01T21:41:38.025Z,9.07
2019-05-01T21:44:06.508Z,9.70
2019-05-01T21:46:30.475Z,10.27
2019-05-01T21:48:55.838Z,9.87
2019-05-01T21:51:22.746Z,10.53
2019-05-01T21:53:48.706Z,9.70
2019-05-01T21:56:14.107Z,10.57
2019-05-01T21:58:39.470Z,10.30
2019-05-01T22:01:06.255Z,9.90
2019-05-01T22:03:31.727Z,11.30
2019-05-01T22:05:57.079Z,13.03
2019-05-01T22:08:22.990Z,12.10
2019-05-01T22:10:52.004Z,14.37
2019-05-01T22:13:20.341Z,14.60
2019-05-01T22:15:48.996Z,15.10
2019-05-01T22:18:22.763Z,14.00
2019-05-01T22:20:56.459Z,15.00
2019-05-01T22:23:23.261Z,14.73
2019-05-01T22:25:51.080Z,15.43
2019-05-01T22:28:41.686Z,15.77
2019-05-01T22:31:35.106Z,15.03
2019-05-01T22:34:12.435Z,15.90
2019-05-01T22:36:37.857Z,15.57
2019-05-01T22:39:06.114Z,15.10
2019-05-01T22:41:31.846Z,16.03
2019-05-01T22:43:57.341Z,15.03
2019-05-01T22:46:27.813Z,15.57
2019-05-01T22:48:53.205Z,15.20
2019-05-01T22:51:23.559Z,15.60
2019-05-01T22:53:54.544Z,16.13
2019-05-01T22:56:19.923Z,16.13
2019-05-01T22:58:45.338Z,16.03
2019-05-01T23:01:13.165Z,16.60
2019-05-01T23:03:49.102Z,16.67
2019-05-01T23:06:14.471Z,16.20
2019-05-01T23:08:39.865Z,16.83
2019-05-01T23:11:18.551Z,17.20
2019-05-01T23:13:32.491Z,17.13
2019-05-01T23:15:58.101Z,17.43
2019-05-01T23:18:23.739Z,16.77
2019-05-01T23:20:49.095Z,18.23
2019-05-01T23:23:14.497Z,17.77
2019-05-01T23:25:41.128Z,17.97
2019-05-01T23:28:06.874Z,19.13
2019-05-01T23:30:32.340Z,19.20
2019-05-01T23:32:57.706Z,19.77
2019-05-01T23:35:23.086Z,18.57
2019-05-01T23:37:49.348Z,18.13
2019-05-01T23:40:17.257Z,18.83
2019-05-01T23:42:43.300Z,18.37
2019-05-01T23:45:10.975Z,18.00
2019-05-01T23:47:36.342Z,18.77
2019-05-01T23:50:13.024Z,18.80
2019-05-01T23:52:38.613Z,18.13
2019-05-01T23:55:05.326Z,17.90
2019-05-01T23:57:30.716Z,17.23
2019-05-01T23:59:56.074Z,17.57
